sensor_id;sensor_type;location;lat;lon;timestamp;temperature;humidity
9271;DHT22;4673;53.458;9.940;2023-03-08T00:00:40;-1.30;95.30
9271;DHT22;4673;53.458;9.940;2023-03-08T00:03:06;-1.30;95.30
9271;DHT22;4673;53.458;9.940;2023-03-08T00:05:32;-1.30;95.40
9271;DHT22;4673;53.458;9.940;2023-03-08T00:07:57;-1.30;95.60
9271;DHT22;4673;53.458;9.940;2023-03-08T00:10:23;-1.30;95.40
9271;DHT22;4673;53.458;9.940;2023-03-08T00:12:49;-1.30;95.60
9271;DHT22;4673;53.458;9.940;2023-03-08T00:15:14;-1.30;95.80
9271;DHT22;4673;53.458;9.940;2023-03-08T00:17:40;-1.30;95.80
9271;DHT22;4673;53.458;9.940;2023-03-08T00:20:07;-1.40;95.60
9271;DHT22;4673;53.458;9.940;2023-03-08T00:22:39;-1.40;95.90
9271;DHT22;4673;53.458;9.940;2023-03-08T00:25:06;-1.40;96.10
9271;DHT22;4673;53.458;9.940;2023-03-08T00:27:33;-1.40;96.20
9271;DHT22;4673;53.458;9.940;2023-03-08T00:29:59;-1.50;96.30
9271;DHT22;4673;53.458;9.940;2023-03-08T00:32:25;-1.50;96.50
9271;DHT22;4673;53.458;9.940;2023-03-08T00:34:52;-1.50;96.60
9271;DHT22;4673;53.458;9.940;2023-03-08T00:37:18;-1.50;96.70
9271;DHT22;4673;53.458;9.940;2023-03-08T00:39:43;-1.60;96.70
9271;DHT22;4673;53.458;9.940;2023-03-08T00:42:09;-1.50;96.90
9271;DHT22;4673;53.458;9.940;2023-03-08T00:44:35;-1.60;96.90
9271;DHT22;4673;53.458;9.940;2023-03-08T00:47:00;-1.60;97.20
9271;DHT22;4673;53.458;9.940;2023-03-08T00:49:26;-1.60;97.40
9271;DHT22;4673;53.458;9.940;2023-03-08T00:51:51;-1.60;97.50
9271;DHT22;4673;53.458;9.940;2023-03-08T00:54:17;-1.50;97.70
9271;DHT22;4673;53.458;9.940;2023-03-08T00:56:43;-1.50;97.80
9271;DHT22;4673;53.458;9.940;2023-03-08T00:59:08;-1.50;97.90
9271;DHT22;4673;53.458;9.940;2023-03-08T01:01:34;-1.50;97.90
9271;DHT22;4673;53.458;9.940;2023-03-08T01:04:00;-1.60;97.90
9271;DHT22;4673;53.458;9.940;2023-03-08T01:06:26;-1.60;98.20
9271;DHT22;4673;53.458;9.940;2023-03-08T01:08:52;-1.50;98.50
9271;DHT22;4673;53.458;9.940;2023-03-08T01:11:26;-1.30;98.70
9271;DHT22;4673;53.458;9.940;2023-03-08T01:13:53;-1.50;98.70
9271;DHT22;4673;53.458;9.940;2023-03-08T01:16:28;-1.50;98.70
9271;DHT22;4673;53.458;9.940;2023-03-08T01:18:54;-1.60;98.60
9271;DHT22;4673;53.458;9.940;2023-03-08T01:21:21;-1.60;98.60
9271;DHT22;4673;53.458;9.940;2023-03-08T01:23:47;-1.70;98.60
9271;DHT22;4673;53.458;9.940;2023-03-08T01:26:18;-1.70;98.70
9271;DHT22;4673;53.458;9.940;2023-03-08T01:28:44;-1.70;98.80
9271;DHT22;4673;53.458;9.940;2023-03-08T01:31:13;-1.70;99.10
9271;DHT22;4673;53.458;9.940;2023-03-08T01:33:40;-1.70;99.30
9271;DHT22;4673;53.458;9.940;2023-03-08T01:36:08;-1.70;99.40
9271;DHT22;4673;53.458;9.940;2023-03-08T01:38:34;-1.70;99.50
9271;DHT22;4673;53.458;9.940;2023-03-08T01:41:02;-1.70;99.60
9271;DHT22;4673;53.458;9.940;2023-03-08T01:43:30;-1.60;99.70
9271;DHT22;4673;53.458;9.940;2023-03-08T01:48:31;-1.60;99.90
9271;DHT22;4673;53.458;9.940;2023-03-08T01:50:58;-1.60;99.80
9271;DHT22;4673;53.458;9.940;2023-03-08T01:53:25;-1.70;99.80
9271;DHT22;4673;53.458;9.940;2023-03-08T01:55:51;-1.70;99.90
9271;DHT22;4673;53.458;9.940;2023-03-08T01:58:17;-1.70;99.90
9271;DHT22;4673;53.458;9.940;2023-03-08T02:00:42;-1.70;99.90
9271;DHT22;4673;53.458;9.940;2023-03-08T02:03:10;-1.70;99.90
9271;DHT22;4673;53.458;9.940;2023-03-08T02:05:38;-1.80;99.90
9271;DHT22;4673;53.458;9.940;2023-03-08T02:08:05;-1.70;99.90
9271;DHT22;4673;53.458;9.940;2023-03-08T02:10:31;-1.70;99.90
9271;DHT22;4673;53.458;9.940;2023-03-08T02:12:56;-1.70;99.90
9271;DHT22;4673;53.458;9.940;2023-03-08T02:15:23;-1.60;99.90
9271;DHT22;4673;53.458;9.940;2023-03-08T02:17:49;-1.70;99.90
9271;DHT22;4673;53.458;9.940;2023-03-08T02:20:19;-1.70;99.90
9271;DHT22;4673;53.458;9.940;2023-03-08T02:22:47;-1.70;99.90
9271;DHT22;4673;53.458;9.940;2023-03-08T02:25:19;-1.70;99.90
9271;DHT22;4673;53.458;9.940;2023-03-08T02:27:46;-1.70;99.90
9271;DHT22;4673;53.458;9.940;2023-03-08T02:30:14;-1.60;99.90
9271;DHT22;4673;53.458;9.940;2023-03-08T02:32:41;-1.60;99.90
9271;DHT22;4673;53.458;9.940;2023-03-08T02:35:07;-1.60;99.90
9271;DHT22;4673;53.458;9.940;2023-03-08T02:37:33;-1.60;99.90
9271;DHT22;4673;53.458;9.940;2023-03-08T02:39:59;-1.50;99.90
9271;DHT22;4673;53.458;9.940;2023-03-08T02:42:25;-1.40;99.90
9271;DHT22;4673;53.458;9.940;2023-03-08T02:44:50;-1.40;99.90
9271;DHT22;4673;53.458;9.940;2023-03-08T02:47:16;-1.20;99.90
9271;DHT22;4673;53.458;9.940;2023-03-08T02:49:42;-1.20;99.90
9271;DHT22;4673;53.458;9.940;2023-03-08T02:52:07;-1.10;99.90
9271;DHT22;4673;53.458;9.940;2023-03-08T02:54:33;-1.00;99.90
9271;DHT22;4673;53.458;9.940;2023-03-08T02:56:59;-1.00;99.90
9271;DHT22;4673;53.458;9.940;2023-03-08T02:59:24;-0.90;99.90
9271;DHT22;4673;53.458;9.940;2023-03-08T03:01:51;-0.80;99.90
9271;DHT22;4673;53.458;9.940;2023-03-08T03:04:17;-0.80;99.90
9271;DHT22;4673;53.458;9.940;2023-03-08T03:06:43;-0.70;99.90
9271;DHT22;4673;53.458;9.940;2023-03-08T03:09:09;-0.70;99.90
9271;DHT22;4673;53.458;9.940;2023-03-08T03:11:35;-0.70;99.90
9271;DHT22;4673;53.458;9.940;2023-03-08T03:14:01;-0.80;99.90
9271;DHT22;4673;53.458;9.940;2023-03-08T03:16:27;-0.80;99.90
9271;DHT22;4673;53.458;9.940;2023-03-08T03:18:54;-0.90;99.90
9271;DHT22;4673;53.458;9.940;2023-03-08T03:21:20;-0.90;99.90
9271;DHT22;4673;53.458;9.940;2023-03-08T03:23:46;-0.90;99.90
9271;DHT22;4673;53.458;9.940;2023-03-08T03:26:17;-0.90;99.90
9271;DHT22;4673;53.458;9.940;2023-03-08T03:28:44;-0.90;99.90
9271;DHT22;4673;53.458;9.940;2023-03-08T03:31:15;-0.80;99.90
9271;DHT22;4673;53.458;9.940;2023-03-08T03:33:41;-0.70;99.90
9271;DHT22;4673;53.458;9.940;2023-03-08T03:36:10;-0.70;99.90
9271;DHT22;4673;53.458;9.940;2023-03-08T03:38:37;-0.70;99.90
9271;DHT22;4673;53.458;9.940;2023-03-08T03:41:07;-0.80;99.90
9271;DHT22;4673;53.458;9.940;2023-03-08T03:43:34;-0.80;99.90
9271;DHT22;4673;53.458;9.940;2023-03-08T03:46:02;-0.80;99.90
9271;DHT22;4673;53.458;9.940;2023-03-08T03:48:28;-0.80;99.90
9271;DHT22;4673;53.458;9.940;2023-03-08T03:50:59;-0.90;99.90
9271;DHT22;4673;53.458;9.940;2023-03-08T03:53:27;-0.90;99.90
9271;DHT22;4673;53.458;9.940;2023-03-08T03:55:54;-0.90;99.90
9271;DHT22;4673;53.458;9.940;2023-03-08T03:58:19;-1.00;99.90
9271;DHT22;4673;53.458;9.940;2023-03-08T04:00:45;-1.10;99.90
9271;DHT22;4673;53.458;9.940;2023-03-08T04:03:11;-1.10;99.90
9271;DHT22;4673;53.458;9.940;2023-03-08T04:05:37;-1.10;99.90
9271;DHT22;4673;53.458;9.940;2023-03-08T04:08:05;-1.10;99.90
9271;DHT22;4673;53.458;9.940;2023-03-08T04:10:31;-1.20;99.90
9271;DHT22;4673;53.458;9.940;2023-03-08T04:12:56;-1.20;99.90
9271;DHT22;4673;53.458;9.940;2023-03-08T04:15:22;-1.20;99.90
9271;DHT22;4673;53.458;9.940;2023-03-08T04:17:47;-1.30;99.90
9271;DHT22;4673;53.458;9.940;2023-03-08T04:20:14;-1.20;99.90
9271;DHT22;4673;53.458;9.940;2023-03-08T04:22:40;-1.20;99.90
9271;DHT22;4673;53.458;9.940;2023-03-08T04:25:06;-1.20;99.90
9271;DHT22;4673;53.458;9.940;2023-03-08T04:27:32;-1.20;99.90
9271;DHT22;4673;53.458;9.940;2023-03-08T04:29:57;-1.20;99.90
9271;DHT22;4673;53.458;9.940;2023-03-08T04:32:23;-1.10;99.90
9271;DHT22;4673;53.458;9.940;2023-03-08T04:34:48;-1.00;99.90
9271;DHT22;4673;53.458;9.940;2023-03-08T04:37:14;-1.00;99.90
9271;DHT22;4673;53.458;9.940;2023-03-08T04:39:39;-1.00;99.90
9271;DHT22;4673;53.458;9.940;2023-03-08T04:42:06;-1.00;99.90
9271;DHT22;4673;53.458;9.940;2023-03-08T04:44:31;-0.90;99.90
9271;DHT22;4673;53.458;9.940;2023-03-08T04:46:57;-0.90;99.90
9271;DHT22;4673;53.458;9.940;2023-03-08T04:49:23;-0.90;99.90
9271;DHT22;4673;53.458;9.940;2023-03-08T04:51:49;-0.70;99.90
9271;DHT22;4673;53.458;9.940;2023-03-08T04:54:15;-0.70;99.90
9271;DHT22;4673;53.458;9.940;2023-03-08T04:56:41;-0.60;99.90
9271;DHT22;4673;53.458;9.940;2023-03-08T04:59:06;-0.50;99.90
9271;DHT22;4673;53.458;9.940;2023-03-08T05:01:32;-0.50;99.90
9271;DHT22;4673;53.458;9.940;2023-03-08T05:03:58;-0.40;99.90
9271;DHT22;4673;53.458;9.940;2023-03-08T05:06:25;-0.40;99.90
9271;DHT22;4673;53.458;9.940;2023-03-08T05:08:52;-0.30;99.90
9271;DHT22;4673;53.458;9.940;2023-03-08T05:11:21;-0.40;99.90
9271;DHT22;4673;53.458;9.940;2023-03-08T05:13:46;-0.40;99.90
9271;DHT22;4673;53.458;9.940;2023-03-08T05:16:12;-0.40;99.90
9271;DHT22;4673;53.458;9.940;2023-03-08T05:18:38;-0.30;99.90
9271;DHT22;4673;53.458;9.940;2023-03-08T05:21:10;-0.20;99.90
9271;DHT22;4673;53.458;9.940;2023-03-08T05:23:36;-0.20;99.90
9271;DHT22;4673;53.458;9.940;2023-03-08T05:26:03;-0.20;99.90
9271;DHT22;4673;53.458;9.940;2023-03-08T05:28:31;-0.20;99.90
9271;DHT22;4673;53.458;9.940;2023-03-08T05:31:11;-0.20;99.90
9271;DHT22;4673;53.458;9.940;2023-03-08T05:33:37;-0.30;99.70
9271;DHT22;4673;53.458;9.940;2023-03-08T05:36:04;-0.20;99.80
9271;DHT22;4673;53.458;9.940;2023-03-08T05:38:30;-0.20;99.70
9271;DHT22;4673;53.458;9.940;2023-03-08T05:41:04;-0.20;99.60
9271;DHT22;4673;53.458;9.940;2023-03-08T05:43:30;-0.20;99.70
9271;DHT22;4673;53.458;9.940;2023-03-08T05:45:58;-0.10;99.60
9271;DHT22;4673;53.458;9.940;2023-03-08T05:48:24;-0.20;98.90
9271;DHT22;4673;53.458;9.940;2023-03-08T05:50:50;-0.20;98.90
9271;DHT22;4673;53.458;9.940;2023-03-08T05:53:16;-0.20;98.80
9271;DHT22;4673;53.458;9.940;2023-03-08T05:55:42;-0.20;98.90
9271;DHT22;4673;53.458;9.940;2023-03-08T05:58:07;-0.30;98.20
9271;DHT22;4673;53.458;9.940;2023-03-08T06:00:33;-0.40;98.20
9271;DHT22;4673;53.458;9.940;2023-03-08T06:02:59;-0.40;98.50
9271;DHT22;4673;53.458;9.940;2023-03-08T06:05:28;-0.40;98.70
9271;DHT22;4673;53.458;9.940;2023-03-08T06:07:54;-0.30;99.00
9271;DHT22;4673;53.458;9.940;2023-03-08T06:10:20;-0.20;98.80
9271;DHT22;4673;53.458;9.940;2023-03-08T06:12:46;-0.20;98.90
9271;DHT22;4673;53.458;9.940;2023-03-08T06:15:11;-0.30;98.30
9271;DHT22;4673;53.458;9.940;2023-03-08T06:17:38;-0.30;98.20
9271;DHT22;4673;53.458;9.940;2023-03-08T06:20:04;-0.30;98.40
9271;DHT22;4673;53.458;9.940;2023-03-08T06:22:30;-0.20;98.70
9271;DHT22;4673;53.458;9.940;2023-03-08T06:24:55;-0.10;98.90
9271;DHT22;4673;53.458;9.940;2023-03-08T06:27:21;-0.10;98.50
9271;DHT22;4673;53.458;9.940;2023-03-08T06:29:47;-0.10;98.10
9271;DHT22;4673;53.458;9.940;2023-03-08T06:32:13;0.00;98.10
9271;DHT22;4673;53.458;9.940;2023-03-08T06:34:39;0.00;98.10
9271;DHT22;4673;53.458;9.940;2023-03-08T06:37:04;0.10;97.90
9271;DHT22;4673;53.458;9.940;2023-03-08T06:39:30;0.10;97.90
9271;DHT22;4673;53.458;9.940;2023-03-08T06:41:56;0.20;97.80
9271;DHT22;4673;53.458;9.940;2023-03-08T06:44:22;0.30;97.70
9271;DHT22;4673;53.458;9.940;2023-03-08T06:46:48;0.30;97.20
9271;DHT22;4673;53.458;9.940;2023-03-08T06:49:13;0.30;97.00
9271;DHT22;4673;53.458;9.940;2023-03-08T06:51:39;0.40;96.70
9271;DHT22;4673;53.458;9.940;2023-03-08T06:54:04;0.40;96.30
9271;DHT22;4673;53.458;9.940;2023-03-08T06:56:33;0.40;96.20
9271;DHT22;4673;53.458;9.940;2023-03-08T06:58:58;0.40;95.80
9271;DHT22;4673;53.458;9.940;2023-03-08T07:01:24;0.40;95.70
9271;DHT22;4673;53.458;9.940;2023-03-08T07:03:50;0.50;95.90
9271;DHT22;4673;53.458;9.940;2023-03-08T07:06:17;0.50;95.60
9271;DHT22;4673;53.458;9.940;2023-03-08T07:08:42;0.60;95.40
9271;DHT22;4673;53.458;9.940;2023-03-08T07:11:08;0.70;95.00
9271;DHT22;4673;53.458;9.940;2023-03-08T07:13:35;0.70;94.70
9271;DHT22;4673;53.458;9.940;2023-03-08T07:16:05;0.70;93.90
9271;DHT22;4673;53.458;9.940;2023-03-08T07:18:31;0.70;93.90
9271;DHT22;4673;53.458;9.940;2023-03-08T07:20:57;0.80;94.00
9271;DHT22;4673;53.458;9.940;2023-03-08T07:23:23;0.80;93.60
9271;DHT22;4673;53.458;9.940;2023-03-08T07:25:49;0.90;93.00
9271;DHT22;4673;53.458;9.940;2023-03-08T07:28:14;0.80;92.60
9271;DHT22;4673;53.458;9.940;2023-03-08T07:30:44;1.00;92.90
9271;DHT22;4673;53.458;9.940;2023-03-08T07:33:10;1.00;92.40
9271;DHT22;4673;53.458;9.940;2023-03-08T07:35:36;1.10;92.20
9271;DHT22;4673;53.458;9.940;2023-03-08T07:38:02;1.20;91.80
9271;DHT22;4673;53.458;9.940;2023-03-08T07:40:27;1.30;91.30
9271;DHT22;4673;53.458;9.940;2023-03-08T07:42:54;1.30;90.90
9271;DHT22;4673;53.458;9.940;2023-03-08T07:45:20;1.40;90.30
9271;DHT22;4673;53.458;9.940;2023-03-08T07:47:51;1.40;89.70
9271;DHT22;4673;53.458;9.940;2023-03-08T07:50:20;1.40;89.80
9271;DHT22;4673;53.458;9.940;2023-03-08T07:52:46;1.40;89.20
9271;DHT22;4673;53.458;9.940;2023-03-08T07:55:12;1.40;88.80
9271;DHT22;4673;53.458;9.940;2023-03-08T07:57:38;1.40;88.50
9271;DHT22;4673;53.458;9.940;2023-03-08T08:00:05;1.30;86.70
9271;DHT22;4673;53.458;9.940;2023-03-08T08:02:34;1.00;87.40
9271;DHT22;4673;53.458;9.940;2023-03-08T08:05:01;1.00;88.50
9271;DHT22;4673;53.458;9.940;2023-03-08T08:07:26;1.30;89.20
9271;DHT22;4673;53.458;9.940;2023-03-08T08:09:53;1.50;89.30
9271;DHT22;4673;53.458;9.940;2023-03-08T08:12:19;1.70;89.00
9271;DHT22;4673;53.458;9.940;2023-03-08T08:14:44;1.80;88.00
9271;DHT22;4673;53.458;9.940;2023-03-08T08:17:10;1.90;87.70
9271;DHT22;4673;53.458;9.940;2023-03-08T08:19:37;2.00;87.00
9271;DHT22;4673;53.458;9.940;2023-03-08T08:22:03;2.10;86.50
9271;DHT22;4673;53.458;9.940;2023-03-08T08:24:29;2.40;86.40
9271;DHT22;4673;53.458;9.940;2023-03-08T08:26:57;2.50;85.90
9271;DHT22;4673;53.458;9.940;2023-03-08T08:29:23;2.60;84.50
9271;DHT22;4673;53.458;9.940;2023-03-08T08:31:48;2.70;84.30
9271;DHT22;4673;53.458;9.940;2023-03-08T08:34:18;2.90;83.60
9271;DHT22;4673;53.458;9.940;2023-03-08T08:36:44;3.10;83.40
9271;DHT22;4673;53.458;9.940;2023-03-08T08:39:09;3.20;82.30
9271;DHT22;4673;53.458;9.940;2023-03-08T08:41:35;3.40;81.40
9271;DHT22;4673;53.458;9.940;2023-03-08T08:44:01;3.60;80.60
9271;DHT22;4673;53.458;9.940;2023-03-08T08:46:27;3.90;79.70
9271;DHT22;4673;53.458;9.940;2023-03-08T08:48:54;3.90;79.10
9271;DHT22;4673;53.458;9.940;2023-03-08T08:51:20;4.10;78.40
9271;DHT22;4673;53.458;9.940;2023-03-08T08:53:46;4.20;77.40
9271;DHT22;4673;53.458;9.940;2023-03-08T08:56:21;4.30;76.80
9271;DHT22;4673;53.458;9.940;2023-03-08T08:58:47;4.30;75.90
9271;DHT22;4673;53.458;9.940;2023-03-08T09:01:19;4.20;74.50
9271;DHT22;4673;53.458;9.940;2023-03-08T09:03:46;4.20;75.00
9271;DHT22;4673;53.458;9.940;2023-03-08T09:06:13;4.30;75.10
9271;DHT22;4673;53.458;9.940;2023-03-08T09:08:38;4.30;73.40
9271;DHT22;4673;53.458;9.940;2023-03-08T09:11:06;4.30;74.10
9271;DHT22;4673;53.458;9.940;2023-03-08T09:13:32;4.30;73.70
9271;DHT22;4673;53.458;9.940;2023-03-08T09:15:58;4.40;73.80
9271;DHT22;4673;53.458;9.940;2023-03-08T09:18:24;4.60;73.50
9271;DHT22;4673;53.458;9.940;2023-03-08T09:20:50;4.70;72.60
9271;DHT22;4673;53.458;9.940;2023-03-08T09:23:16;4.80;72.00
9271;DHT22;4673;53.458;9.940;2023-03-08T09:25:42;4.80;71.20
9271;DHT22;4673;53.458;9.940;2023-03-08T09:28:07;4.70;71.40
9271;DHT22;4673;53.458;9.940;2023-03-08T09:30:34;4.50;71.20
9271;DHT22;4673;53.458;9.940;2023-03-08T09:33:00;4.30;71.70
9271;DHT22;4673;53.458;9.940;2023-03-08T09:35:27;4.00;71.60
9271;DHT22;4673;53.458;9.940;2023-03-08T09:37:53;3.80;72.70
9271;DHT22;4673;53.458;9.940;2023-03-08T09:40:26;3.80;72.60
9271;DHT22;4673;53.458;9.940;2023-03-08T09:42:52;3.70;72.90
9271;DHT22;4673;53.458;9.940;2023-03-08T09:45:25;3.60;73.20
9271;DHT22;4673;53.458;9.940;2023-03-08T09:48:12;3.60;73.40
9271;DHT22;4673;53.458;9.940;2023-03-08T09:50:41;3.60;73.50
9271;DHT22;4673;53.458;9.940;2023-03-08T09:53:10;3.50;73.20
9271;DHT22;4673;53.458;9.940;2023-03-08T09:55:48;3.40;74.00
9271;DHT22;4673;53.458;9.940;2023-03-08T10:00:44;3.20;74.00
9271;DHT22;4673;53.458;9.940;2023-03-08T10:06:33;3.00;75.30
9271;DHT22;4673;53.458;9.940;2023-03-08T10:11:47;3.20;75.70
9271;DHT22;4673;53.458;9.940;2023-03-08T10:14:21;3.20;75.00
9271;DHT22;4673;53.458;9.940;2023-03-08T10:17:12;3.20;75.40
9271;DHT22;4673;53.458;9.940;2023-03-08T10:20:19;3.20;75.50
9271;DHT22;4673;53.458;9.940;2023-03-08T10:22:36;3.30;75.30
9271;DHT22;4673;53.458;9.940;2023-03-08T10:25:24;3.50;75.20
9271;DHT22;4673;53.458;9.940;2023-03-08T10:27:54;3.30;74.00
9271;DHT22;4673;53.458;9.940;2023-03-08T10:30:23;3.20;74.10
9271;DHT22;4673;53.458;9.940;2023-03-08T10:32:54;3.30;74.90
9271;DHT22;4673;53.458;9.940;2023-03-08T10:36:15;3.40;75.20
9271;DHT22;4673;53.458;9.940;2023-03-08T10:38:16;3.60;75.10
9271;DHT22;4673;53.458;9.940;2023-03-08T10:40:41;3.80;74.80
9271;DHT22;4673;53.458;9.940;2023-03-08T10:43:17;4.00;73.70
9271;DHT22;4673;53.458;9.940;2023-03-08T10:45:44;4.10;73.10
9271;DHT22;4673;53.458;9.940;2023-03-08T10:48:19;4.40;72.70
9271;DHT22;4673;53.458;9.940;2023-03-08T10:51:00;4.30;71.80
9271;DHT22;4673;53.458;9.940;2023-03-08T10:53:26;4.50;71.40
9271;DHT22;4673;53.458;9.940;2023-03-08T10:55:55;4.80;70.40
9271;DHT22;4673;53.458;9.940;2023-03-08T11:00:57;4.70;68.70
9271;DHT22;4673;53.458;9.940;2023-03-08T11:03:24;5.10;68.80
9271;DHT22;4673;53.458;9.940;2023-03-08T11:05:57;5.30;67.70
9271;DHT22;4673;53.458;9.940;2023-03-08T11:11:10;5.60;63.70
9271;DHT22;4673;53.458;9.940;2023-03-08T11:13:54;5.70;63.30
9271;DHT22;4673;53.458;9.940;2023-03-08T11:33:27;5.80;60.30
9271;DHT22;4673;53.458;9.940;2023-03-08T11:36:10;5.90;59.70
9271;DHT22;4673;53.458;9.940;2023-03-08T11:38:37;5.90;58.50
9271;DHT22;4673;53.458;9.940;2023-03-08T11:44:24;5.70;58.70
9271;DHT22;4673;53.458;9.940;2023-03-08T12:00:37;5.30;59.90
9271;DHT22;4673;53.458;9.940;2023-03-08T12:03:15;5.30;60.60
9271;DHT22;4673;53.458;9.940;2023-03-08T12:05:47;5.10;60.60
9271;DHT22;4673;53.458;9.940;2023-03-08T12:08:15;5.10;60.20
9271;DHT22;4673;53.458;9.940;2023-03-08T12:13:47;4.90;61.20
9271;DHT22;4673;53.458;9.940;2023-03-08T12:16:18;5.00;61.30
9271;DHT22;4673;53.458;9.940;2023-03-08T12:22:11;5.40;60.60
9271;DHT22;4673;53.458;9.940;2023-03-08T12:25:08;5.50;60.40
9271;DHT22;4673;53.458;9.940;2023-03-08T12:27:46;5.50;59.00
9271;DHT22;4673;53.458;9.940;2023-03-08T12:32:43;5.30;59.10
9271;DHT22;4673;53.458;9.940;2023-03-08T12:38:04;5.30;59.80
9271;DHT22;4673;53.458;9.940;2023-03-08T12:40:41;5.30;58.90
9271;DHT22;4673;53.458;9.940;2023-03-08T12:43:29;5.20;59.50
9271;DHT22;4673;53.458;9.940;2023-03-08T12:53:43;5.30;60.70
9271;DHT22;4673;53.458;9.940;2023-03-08T12:58:54;5.30;60.00
9271;DHT22;4673;53.458;9.940;2023-03-08T13:01:39;5.30;60.00
9271;DHT22;4673;53.458;9.940;2023-03-08T13:04:34;5.40;58.50
9271;DHT22;4673;53.458;9.940;2023-03-08T13:17:48;6.10;56.10
9271;DHT22;4673;53.458;9.940;2023-03-08T13:20:24;6.30;55.40
9271;DHT22;4673;53.458;9.940;2023-03-08T13:28:25;6.50;53.30
9271;DHT22;4673;53.458;9.940;2023-03-08T13:30:57;6.50;53.90
9271;DHT22;4673;53.458;9.940;2023-03-08T13:36:18;6.50;53.50
9271;DHT22;4673;53.458;9.940;2023-03-08T13:39:04;6.70;53.30
9271;DHT22;4673;53.458;9.940;2023-03-08T13:41:38;6.70;52.60
9271;DHT22;4673;53.458;9.940;2023-03-08T13:44:26;6.70;54.10
9271;DHT22;4673;53.458;9.940;2023-03-08T13:47:02;6.70;54.40
9271;DHT22;4673;53.458;9.940;2023-03-08T13:49:33;6.70;52.20
9271;DHT22;4673;53.458;9.940;2023-03-08T13:52:02;6.50;51.90
9271;DHT22;4673;53.458;9.940;2023-03-08T13:54:36;6.50;51.20
9271;DHT22;4673;53.458;9.940;2023-03-08T13:57:05;6.30;51.00
9271;DHT22;4673;53.458;9.940;2023-03-08T13:59:32;6.10;52.20
9271;DHT22;4673;53.458;9.940;2023-03-08T14:01:59;6.10;52.30
9271;DHT22;4673;53.458;9.940;2023-03-08T14:04:28;6.10;53.50
9271;DHT22;4673;53.458;9.940;2023-03-08T14:06:56;6.20;53.10
9271;DHT22;4673;53.458;9.940;2023-03-08T14:09:22;6.10;52.60
9271;DHT22;4673;53.458;9.940;2023-03-08T14:11:59;6.00;52.30
9271;DHT22;4673;53.458;9.940;2023-03-08T14:14:32;5.80;52.00
9271;DHT22;4673;53.458;9.940;2023-03-08T14:16:58;5.50;52.00
9271;DHT22;4673;53.458;9.940;2023-03-08T14:19:32;5.40;53.20
9271;DHT22;4673;53.458;9.940;2023-03-08T14:22:13;5.40;53.00
9271;DHT22;4673;53.458;9.940;2023-03-08T14:24:49;5.20;53.00
9271;DHT22;4673;53.458;9.940;2023-03-08T14:29:47;4.90;54.30
9271;DHT22;4673;53.458;9.940;2023-03-08T14:34:47;4.80;55.80
9271;DHT22;4673;53.458;9.940;2023-03-08T14:39:45;4.80;56.40
9271;DHT22;4673;53.458;9.940;2023-03-08T14:42:34;4.80;56.00
9271;DHT22;4673;53.458;9.940;2023-03-08T14:45:25;4.80;56.10
9271;DHT22;4673;53.458;9.940;2023-03-08T14:47:56;4.80;56.20
9271;DHT22;4673;53.458;9.940;2023-03-08T14:50:29;4.80;56.10
9271;DHT22;4673;53.458;9.940;2023-03-08T14:52:57;4.80;56.90
9271;DHT22;4673;53.458;9.940;2023-03-08T14:55:27;4.90;56.90
9271;DHT22;4673;53.458;9.940;2023-03-08T14:58:02;4.80;56.00
9271;DHT22;4673;53.458;9.940;2023-03-08T15:00:29;4.80;55.60
9271;DHT22;4673;53.458;9.940;2023-03-08T15:02:58;4.70;56.20
9271;DHT22;4673;53.458;9.940;2023-03-08T15:05:25;4.60;56.30
9271;DHT22;4673;53.458;9.940;2023-03-08T15:07:51;4.60;57.00
9271;DHT22;4673;53.458;9.940;2023-03-08T15:10:31;4.60;56.30
9271;DHT22;4673;53.458;9.940;2023-03-08T15:12:58;4.60;56.60
9271;DHT22;4673;53.458;9.940;2023-03-08T15:15:24;4.50;56.60
9271;DHT22;4673;53.458;9.940;2023-03-08T15:17:50;4.40;57.70
9271;DHT22;4673;53.458;9.940;2023-03-08T15:20:16;4.30;57.50
9271;DHT22;4673;53.458;9.940;2023-03-08T15:22:47;4.40;57.80
9271;DHT22;4673;53.458;9.940;2023-03-08T15:25:22;4.30;57.30
9271;DHT22;4673;53.458;9.940;2023-03-08T15:27:48;4.20;57.70
9271;DHT22;4673;53.458;9.940;2023-03-08T15:30:20;4.10;57.80
9271;DHT22;4673;53.458;9.940;2023-03-08T15:32:46;4.20;57.80
9271;DHT22;4673;53.458;9.940;2023-03-08T15:35:13;4.10;57.60
9271;DHT22;4673;53.458;9.940;2023-03-08T15:37:39;4.10;57.80
9271;DHT22;4673;53.458;9.940;2023-03-08T15:40:05;4.00;57.50
9271;DHT22;4673;53.458;9.940;2023-03-08T15:42:35;4.00;57.80
9271;DHT22;4673;53.458;9.940;2023-03-08T15:45:01;3.90;57.80
9271;DHT22;4673;53.458;9.940;2023-03-08T15:47:26;3.90;57.80
9271;DHT22;4673;53.458;9.940;2023-03-08T15:49:52;3.80;58.00
9271;DHT22;4673;53.458;9.940;2023-03-08T15:52:18;3.70;57.90
9271;DHT22;4673;53.458;9.940;2023-03-08T15:54:43;3.70;58.00
9271;DHT22;4673;53.458;9.940;2023-03-08T15:57:12;3.70;58.20
9271;DHT22;4673;53.458;9.940;2023-03-08T15:59:38;3.70;58.00
9271;DHT22;4673;53.458;9.940;2023-03-08T16:02:04;3.80;58.20
9271;DHT22;4673;53.458;9.940;2023-03-08T16:04:30;3.60;58.50
9271;DHT22;4673;53.458;9.940;2023-03-08T16:06:55;3.60;58.90
9271;DHT22;4673;53.458;9.940;2023-03-08T16:09:22;3.60;59.20
9271;DHT22;4673;53.458;9.940;2023-03-08T16:11:47;3.60;59.60
9271;DHT22;4673;53.458;9.940;2023-03-08T16:14:16;3.60;59.60
9271;DHT22;4673;53.458;9.940;2023-03-08T16:16:43;3.60;59.50
9271;DHT22;4673;53.458;9.940;2023-03-08T16:19:09;3.50;59.60
9271;DHT22;4673;53.458;9.940;2023-03-08T16:21:35;3.40;59.40
9271;DHT22;4673;53.458;9.940;2023-03-08T16:24:00;3.40;59.00
9271;DHT22;4673;53.458;9.940;2023-03-08T16:26:27;3.40;58.90
9271;DHT22;4673;53.458;9.940;2023-03-08T16:28:53;3.40;59.60
9271;DHT22;4673;53.458;9.940;2023-03-08T16:31:20;3.30;60.20
9271;DHT22;4673;53.458;9.940;2023-03-08T16:33:47;3.30;60.40
9271;DHT22;4673;53.458;9.940;2023-03-08T16:36:13;3.20;59.70
9271;DHT22;4673;53.458;9.940;2023-03-08T16:38:40;3.20;60.10
9271;DHT22;4673;53.458;9.940;2023-03-08T16:41:06;3.10;59.90
9271;DHT22;4673;53.458;9.940;2023-03-08T16:43:31;3.10;60.10
9271;DHT22;4673;53.458;9.940;2023-03-08T16:45:59;3.10;60.60
9271;DHT22;4673;53.458;9.940;2023-03-08T16:48:26;3.00;60.80
9271;DHT22;4673;53.458;9.940;2023-03-08T16:50:55;2.90;60.80
9271;DHT22;4673;53.458;9.940;2023-03-08T16:53:24;2.80;60.70
9271;DHT22;4673;53.458;9.940;2023-03-08T16:55:50;2.80;61.00
9271;DHT22;4673;53.458;9.940;2023-03-08T16:58:17;2.80;61.50
9271;DHT22;4673;53.458;9.940;2023-03-08T17:00:43;2.70;62.00
9271;DHT22;4673;53.458;9.940;2023-03-08T17:03:09;2.60;62.30
9271;DHT22;4673;53.458;9.940;2023-03-08T17:05:39;2.60;62.50
9271;DHT22;4673;53.458;9.940;2023-03-08T17:08:05;2.50;62.70
9271;DHT22;4673;53.458;9.940;2023-03-08T17:10:35;2.50;63.20
9271;DHT22;4673;53.458;9.940;2023-03-08T17:13:01;2.40;62.90
9271;DHT22;4673;53.458;9.940;2023-03-08T17:15:26;2.50;62.80
9271;DHT22;4673;53.458;9.940;2023-03-08T17:17:52;2.40;63.10
9271;DHT22;4673;53.458;9.940;2023-03-08T17:20:18;2.40;63.10
9271;DHT22;4673;53.458;9.940;2023-03-08T17:22:43;2.40;63.40
9271;DHT22;4673;53.458;9.940;2023-03-08T17:25:09;2.40;63.90
9271;DHT22;4673;53.458;9.940;2023-03-08T17:27:35;2.30;64.40
9271;DHT22;4673;53.458;9.940;2023-03-08T17:30:00;2.20;64.20
9271;DHT22;4673;53.458;9.940;2023-03-08T17:32:28;2.20;64.10
9271;DHT22;4673;53.458;9.940;2023-03-08T17:34:56;2.20;64.40
9271;DHT22;4673;53.458;9.940;2023-03-08T17:37:22;2.20;64.80
9271;DHT22;4673;53.458;9.940;2023-03-08T17:39:48;2.10;64.90
9271;DHT22;4673;53.458;9.940;2023-03-08T17:42:13;2.10;64.90
9271;DHT22;4673;53.458;9.940;2023-03-08T17:44:39;2.10;65.30
9271;DHT22;4673;53.458;9.940;2023-03-08T17:47:05;2.00;65.50
9271;DHT22;4673;53.458;9.940;2023-03-08T17:49:30;2.00;65.80
9271;DHT22;4673;53.458;9.940;2023-03-08T17:51:56;2.00;65.90
9271;DHT22;4673;53.458;9.940;2023-03-08T17:54:22;1.90;66.00
9271;DHT22;4673;53.458;9.940;2023-03-08T17:56:48;1.90;66.30